Time;durP1;ratioP1;P1;durP2;ratioP2;P2;SDS_P1;SDS_P2;PMS_P1;PMS_P2;Temp;Humidity;BMP_temperature;BMP_pressure;BME280_temperature;BME280_humidity;BME280_pressure;Samples;Min_cycle;Max_cycle;Signal;HPM_P1;HPM_P2
2022/08/21 00:01:42;;;;;;;8.13;3.13;;;20.80;56.50;;;;;;5085015;28;20469;-46
2022/08/21 00:04:10;;;;;;;4.97;3.27;;;20.70;56.50;;;;;;5080495;28;20475;-46
2022/08/21 00:06:40;;;;;;;3.33;2.53;;;20.70;56.70;;;;;;5083776;28;20573;-46
2022/08/21 00:09:08;;;;;;;4.70;2.70;;;20.60;56.80;;;;;;5085773;28;20991;-46
2022/08/21 00:11:37;;;;;;;3.13;2.87;;;20.60;57.10;;;;;;5084601;28;20480;-46
2022/08/21 00:14:06;;;;;;;4.83;3.47;;;20.50;57.20;;;;;;5084844;28;20951;-46
2022/08/21 00:16:33;;;;;;;3.67;3.10;;;20.50;57.30;;;;;;5086990;28;21003;-46
2022/08/21 00:19:00;;;;;;;4.67;3.03;;;20.50;57.60;;;;;;5067954;28;20476;-46
2022/08/21 00:21:27;;;;;;;8.27;3.40;;;20.40;57.70;;;;;;5085741;28;20452;-46
2022/08/21 00:23:54;;;;;;;4.80;3.10;;;20.40;57.80;;;;;;5087748;28;20483;-46
2022/08/21 00:26:20;;;;;;;7.37;3.30;;;20.40;57.80;;;;;;5086477;28;20491;-46
2022/08/21 00:28:48;;;;;;;5.97;3.37;;;20.40;57.90;;;;;;5064756;28;20468;-46
2022/08/21 00:31:16;;;;;;;5.20;3.20;;;20.30;58.00;;;;;;5081584;28;20593;-46
2022/08/21 00:33:43;;;;;;;3.70;3.00;;;20.30;58.00;;;;;;5064889;28;20841;-46
2022/08/21 00:36:10;;;;;;;6.63;3.00;;;20.30;57.80;;;;;;5069227;28;20830;-46
2022/08/21 00:38:37;;;;;;;5.30;3.30;;;20.30;57.90;;;;;;5059861;28;20499;-46
2022/08/21 00:41:07;;;;;;;4.83;3.13;;;20.30;58.00;;;;;;5082517;28;20476;-46
2022/08/21 00:43:54;;;;;;;5.30;2.73;;;20.20;58.10;;;;;;5081138;28;20456;-46
2022/08/21 00:46:21;;;;;;;4.50;2.97;;;20.20;58.20;;;;;;5065350;28;20910;-46
2022/08/21 00:48:54;;;;;;;3.33;2.80;;;20.10;58.20;;;;;;5067565;28;20978;-46
2022/08/21 00:51:33;;;;;;;4.10;2.50;;;20.10;58.30;;;;;;5082439;28;20540;-46
2022/08/21 00:54:05;;;;;;;6.67;3.03;;;20.20;58.20;;;;;;5083968;28;20895;-46
2022/08/21 00:56:41;;;;;;;4.13;2.80;;;20.20;58.30;;;;;;5071603;28;20480;-47
2022/08/21 00:59:09;;;;;;;3.80;3.50;;;20.10;58.40;;;;;;5066112;28;20950;-47
2022/08/21 01:01:38;;;;;;;5.60;2.63;;;20.10;58.40;;;;;;5066257;28;20464;-47
2022/08/21 01:04:05;;;;;;;4.60;2.83;;;20.00;58.40;;;;;;5083719;28;20873;-47
2022/08/21 01:06:32;;;;;;;5.73;2.70;;;20.00;58.50;;;;;;5084042;28;20489;-47
2022/08/21 01:08:59;;;;;;;3.90;2.97;;;20.00;58.50;;;;;;5082344;28;20460;-46
2022/08/21 01:11:25;;;;;;;4.30;2.87;;;20.00;58.50;;;;;;5084510;28;20449;-46
2022/08/21 01:13:53;;;;;;;4.00;3.43;;;19.90;58.40;;;;;;5084322;28;20457;-46
2022/08/21 01:16:21;;;;;;;4.27;2.80;;;19.90;58.60;;;;;;5066565;28;20461;-46
2022/08/21 01:18:49;;;;;;;5.37;2.50;;;19.80;58.60;;;;;;5062033;28;20457;-47
2022/08/21 01:21:20;;;;;;;3.90;2.60;;;19.80;58.40;;;;;;5083910;28;20464;-46
2022/08/21 01:23:52;;;;;;;4.13;3.10;;;19.80;58.40;;;;;;5081540;28;20464;-46
2022/08/21 01:26:23;;;;;;;3.43;2.50;;;19.80;58.40;;;;;;5060976;28;20861;-47
2022/08/21 01:29:05;;;;;;;4.60;2.73;;;19.80;58.30;;;;;;5067839;28;20568;-47
2022/08/21 01:31:33;;;;;;;5.70;3.10;;;19.80;58.00;;;;;;5085562;28;20456;-47
2022/08/21 01:34:00;;;;;;;5.40;2.63;;;19.80;58.20;;;;;;5082566;28;21053;-47
2022/08/21 01:36:27;;;;;;;8.70;3.03;;;19.80;58.40;;;;;;5081533;28;20555;-47
2022/08/21 01:38:55;;;;;;;6.00;2.90;;;19.70;58.60;;;;;;5084606;28;20464;-46
2022/08/21 01:41:22;;;;;;;6.70;2.90;;;19.70;58.60;;;;;;5079777;28;20460;-46
2022/08/21 01:43:49;;;;;;;4.40;3.07;;;19.70;58.70;;;;;;5082991;28;20471;-46
2022/08/21 01:46:16;;;;;;;6.23;2.70;;;19.70;59.10;;;;;;5083675;28;20993;-47
2022/08/21 01:48:43;;;;;;;3.57;2.67;;;19.60;59.10;;;;;;5081598;28;20453;-47
2022/08/21 01:51:10;;;;;;;4.73;2.93;;;19.60;59.20;;;;;;5080485;28;20977;-48
2022/08/21 01:53:37;;;;;;;6.70;2.70;;;19.50;59.40;;;;;;5082784;28;20460;-47
2022/08/21 01:56:06;;;;;;;8.00;3.10;;;19.60;59.50;;;;;;5080063;28;20466;-47
2022/08/21 01:58:40;;;;;;;7.17;3.00;;;19.50;59.70;;;;;;5075350;28;20476;-47
2022/08/21 02:01:09;;;;;;;8.00;3.40;;;19.50;59.70;;;;;;5084133;28;20463;-47
2022/08/21 02:03:36;;;;;;;6.40;3.10;;;19.50;59.50;;;;;;5085723;28;20451;-47
2022/08/21 02:06:05;;;;;;;4.37;2.60;;;19.50;59.50;;;;;;5076437;28;21025;-47
2022/08/21 02:08:31;;;;;;;4.50;2.80;;;19.50;59.70;;;;;;5083689;28;20463;-47
2022/08/21 02:10:59;;;;;;;4.47;2.80;;;19.50;59.90;;;;;;5081060;28;21000;-47
2022/08/21 02:13:26;;;;;;;5.53;2.67;;;19.50;59.90;;;;;;5066177;28;21191;-47
2022/08/21 02:15:53;;;;;;;5.30;3.03;;;19.40;60.00;;;;;;5080192;28;20449;-47
2022/08/21 02:18:19;;;;;;;5.60;2.80;;;19.40;60.10;;;;;;5081962;28;20476;-47
2022/08/21 02:20:48;;;;;;;5.60;2.93;;;19.40;60.10;;;;;;5079065;28;20956;-47
2022/08/21 02:23:22;;;;;;;5.83;3.10;;;19.40;60.10;;;;;;5084546;28;20460;-47
2022/08/21 02:26:04;;;;;;;4.30;2.80;;;19.40;60.30;;;;;;5082932;28;20476;-47
2022/08/21 02:28:32;;;;;;;4.80;3.30;;;19.30;60.40;;;;;;5085445;28;20458;-47
2022/08/21 02:30:59;;;;;;;7.83;2.90;;;19.30;60.40;;;;;;5085095;28;20460;-48
2022/08/21 02:33:25;;;;;;;4.27;3.27;;;19.30;60.10;;;;;;5070236;28;20834;-47
2022/08/21 02:35:53;;;;;;;5.80;3.10;;;19.30;60.50;;;;;;5084704;28;20491;-47
2022/08/21 02:38:26;;;;;;;5.67;3.50;;;19.20;60.70;;;;;;5083113;28;21242;-47
2022/08/21 02:40:54;;;;;;;3.73;2.53;;;19.20;60.60;;;;;;5065336;28;20471;-47
2022/08/21 02:43:23;;;;;;;5.10;3.30;;;19.20;60.60;;;;;;5086520;28;20457;-47
2022/08/21 02:45:51;;;;;;;3.30;2.83;;;19.20;60.70;;;;;;5071382;28;20828;-47
2022/08/21 02:48:22;;;;;;;5.07;3.43;;;19.20;60.70;;;;;;5087296;28;21915;-47
2022/08/21 02:50:58;;;;;;;8.40;3.10;;;19.10;61.00;;;;;;5088554;28;20457;-47
2022/08/21 02:53:26;;;;;;;4.17;3.10;;;19.10;61.00;;;;;;5064248;28;20980;-47
2022/08/21 02:55:53;;;;;;;4.30;3.00;;;19.10;61.10;;;;;;5088070;28;20953;-47
2022/08/21 02:58:23;;;;;;;4.80;3.20;;;19.10;61.00;;;;;;5083070;28;20485;-47
2022/08/21 03:00:51;;;;;;;4.20;2.53;;;19.10;61.00;;;;;;5090239;28;20449;-49
2022/08/21 03:03:18;;;;;;;5.03;2.77;;;19.10;60.80;;;;;;5099590;28;20457;-49
2022/08/21 03:05:44;;;;;;;4.70;3.10;;;19.20;60.70;;;;;;5099026;28;20464;-49
2022/08/21 03:08:13;;;;;;;6.73;3.13;;;19.20;60.70;;;;;;5084127;28;20493;-49
2022/08/21 03:10:44;;;;;;;7.30;3.70;;;19.20;60.80;;;;;;5100988;28;20452;-49
2022/08/21 03:13:11;;;;;;;5.17;2.50;;;19.20;60.70;;;;;;5102886;28;20449;-49
2022/08/21 03:15:39;;;;;;;3.23;2.90;;;19.20;60.80;;;;;;5105348;28;20994;-49
2022/08/21 03:18:08;;;;;;;6.33;3.67;;;19.10;60.90;;;;;;5104765;28;20460;-49
2022/08/21 03:20:36;;;;;;;5.97;3.20;;;19.10;60.70;;;;;;5099008;28;20924;-49
2022/08/21 03:23:05;;;;;;;5.53;2.90;;;19.10;60.70;;;;;;5100551;28;20906;-49
2022/08/21 03:25:41;;;;;;;4.77;3.30;;;19.10;60.70;;;;;;5102823;28;20445;-50
2022/08/21 03:28:12;;;;;;;6.50;3.20;;;19.10;60.70;;;;;;5084711;28;20516;-49
2022/08/21 03:30:45;;;;;;;4.30;3.30;;;19.10;60.80;;;;;;5099895;28;20539;-50
2022/08/21 03:33:12;;;;;;;5.13;3.60;;;19.00;60.80;;;;;;5084713;28;20464;-49
2022/08/21 03:35:42;;;;;;;7.50;3.73;;;19.00;61.00;;;;;;5084530;28;20469;-49
2022/08/21 03:38:10;;;;;;;7.23;3.50;;;19.00;61.20;;;;;;5081529;28;20465;-50
2022/08/21 03:40:36;;;;;;;6.53;3.63;;;19.00;61.30;;;;;;5082957;28;20481;-49
2022/08/21 03:43:03;;;;;;;4.90;3.90;;;18.90;61.40;;;;;;5100793;28;20837;-49
2022/08/21 03:45:30;;;;;;;4.30;2.87;;;18.90;61.40;;;;;;5100565;28;20457;-49
2022/08/21 03:47:59;;;;;;;6.87;3.30;;;18.90;61.50;;;;;;5100763;28;20492;-49
2022/08/21 03:50:30;;;;;;;3.53;3.17;;;18.90;61.70;;;;;;5081353;28;20468;-49
2022/08/21 03:52:57;;;;;;;4.30;2.80;;;18.80;61.90;;;;;;5099205;28;20574;-49
2022/08/21 03:55:25;;;;;;;5.10;3.37;;;18.80;62.00;;;;;;5101094;28;20725;-49
2022/08/21 03:57:52;;;;;;;4.63;2.90;;;18.80;62.10;;;;;;5102521;28;20477;-49
2022/08/21 04:00:20;;;;;;;3.37;3.00;;;18.80;62.20;;;;;;5102900;28;20494;-50
2022/08/21 04:02:47;;;;;;;6.47;3.63;;;18.70;62.40;;;;;;5099982;28;20464;-49
2022/08/21 04:05:26;;;;;;;5.10;3.53;;;18.70;62.40;;;;;;5078064;28;20456;-49
2022/08/21 04:07:58;;;;;;;7.33;4.20;;;18.70;62.60;;;;;;5104830;28;20523;-50
2022/08/21 04:10:26;;;;;;;4.37;3.23;;;18.70;62.50;;;;;;5085486;28;20461;-49
2022/08/21 04:12:54;;;;;;;7.00;3.07;;;18.70;62.60;;;;;;5099362;28;20819;-50
2022/08/21 04:15:22;;;;;;;3.53;3.17;;;18.70;62.70;;;;;;5099182;28;20472;-49
2022/08/21 04:17:49;;;;;;;5.37;3.00;;;18.70;62.60;;;;;;5084781;28;20991;-49
2022/08/21 04:20:17;;;;;;;5.50;3.00;;;18.60;62.70;;;;;;5083271;28;20472;-49
2022/08/21 04:22:45;;;;;;;4.00;3.60;;;18.60;62.40;;;;;;5098425;28;20464;-49
2022/08/21 04:25:13;;;;;;;4.03;3.47;;;18.60;62.40;;;;;;5102233;28;20468;-49
2022/08/21 04:27:42;;;;;;;6.33;3.43;;;18.60;62.70;;;;;;5083066;28;20480;-49
2022/08/21 04:30:10;;;;;;;6.30;3.27;;;18.60;62.70;;;;;;5100244;28;20452;-49
2022/08/21 04:32:38;;;;;;;4.93;3.20;;;18.60;62.50;;;;;;5103509;28;20452;-49
2022/08/21 04:35:08;;;;;;;5.90;3.80;;;18.60;62.50;;;;;;5098472;28;20453;-49
2022/08/21 04:37:36;;;;;;;4.70;3.23;;;18.50;62.60;;;;;;5080911;28;20461;-50
2022/08/21 04:40:09;;;;;;;5.37;3.37;;;18.50;62.90;;;;;;5082452;28;20464;-50
2022/08/21 04:42:46;;;;;;;4.77;3.27;;;18.50;62.80;;;;;;5101525;28;20456;-49
2022/08/21 04:45:43;;;;;;;4.40;3.40;;;18.50;62.60;;;;;;5096526;28;20499;-49
2022/08/21 04:48:13;;;;;;;5.80;3.53;;;18.50;62.80;;;;;;5095240;28;20492;-49
2022/08/21 04:50:48;;;;;;;4.60;3.33;;;18.50;62.90;;;;;;5079859;28;20465;-49
2022/08/21 04:53:20;;;;;;;5.83;3.57;;;18.50;62.90;;;;;;5097128;28;20451;-49
2022/08/21 04:55:47;;;;;;;7.60;3.67;;;18.50;63.10;;;;;;5098282;28;20464;-50
2022/08/21 04:58:17;;;;;;;7.53;3.43;;;18.50;63.40;;;;;;5083309;28;20993;-49
2022/08/21 05:00:45;;;;;;;8.00;4.43;;;18.50;63.60;;;;;;5100607;28;20471;-49
2022/08/21 05:03:14;;;;;;;6.50;4.43;;;18.50;63.80;;;;;;5099788;28;20457;-49
2022/08/21 05:05:43;;;;;;;5.80;4.03;;;18.50;63.90;;;;;;5100252;28;20893;-49
2022/08/21 05:08:14;;;;;;;3.97;3.50;;;18.50;63.80;;;;;;5099277;28;20492;-49
2022/08/21 05:10:42;;;;;;;6.80;3.40;;;18.50;63.70;;;;;;5082190;28;20811;-50
2022/08/21 05:13:09;;;;;;;7.37;3.97;;;18.50;63.70;;;;;;5099838;28;20453;-49
2022/08/21 05:15:37;;;;;;;8.40;3.57;;;18.60;63.70;;;;;;5098966;28;20488;-50
2022/08/21 05:18:04;;;;;;;6.90;3.70;;;18.60;63.50;;;;;;5099407;28;20455;-49
2022/08/21 05:20:30;;;;;;;6.83;3.90;;;18.60;63.40;;;;;;5079304;28;20456;-49
2022/08/21 05:22:57;;;;;;;9.40;3.87;;;18.60;63.40;;;;;;5081279;28;20456;-49
2022/08/21 05:25:24;;;;;;;5.70;3.50;;;18.60;63.20;;;;;;5099613;28;20464;-49
2022/08/21 05:27:53;;;;;;;6.23;3.30;;;18.70;62.90;;;;;;5098204;28;20492;-49
2022/08/21 05:30:21;;;;;;;6.93;3.40;;;18.70;62.70;;;;;;5078570;28;20499;-50
2022/08/21 05:32:48;;;;;;;7.63;4.10;;;18.80;62.70;;;;;;5079674;28;20453;-49
2022/08/21 05:35:15;;;;;;;9.50;3.90;;;18.80;62.60;;;;;;5081540;28;20463;-49
2022/08/21 05:37:41;;;;;;;8.80;3.60;;;18.90;62.50;;;;;;5097693;28;20463;-50
2022/08/21 05:40:09;;;;;;;6.50;3.23;;;18.90;62.50;;;;;;5099715;28;20984;-49
2022/08/21 05:42:50;;;;;;;4.40;4.00;;;18.90;62.50;;;;;;5076027;28;20464;-49
2022/08/21 05:45:26;;;;;;;5.80;4.20;;;19.00;62.10;;;;;;5095652;28;20522;-49
2022/08/21 05:48:27;;;;;;;6.40;3.43;;;19.00;61.80;;;;;;5078393;28;20474;-49
2022/08/21 05:50:54;;;;;;;5.07;3.70;;;19.10;61.90;;;;;;5079629;28;20461;-49
2022/08/21 05:53:22;;;;;;;6.00;3.20;;;19.10;62.20;;;;;;5097155;28;20487;-49
2022/08/21 05:55:50;;;;;;;6.60;3.43;;;19.10;62.20;;;;;;5099399;28;20464;-49
2022/08/21 05:58:20;;;;;;;4.73;3.53;;;19.10;62.10;;;;;;5097706;28;20484;-49
2022/08/21 06:00:49;;;;;;;4.63;3.13;;;19.20;62.00;;;;;;5099311;28;20461;-49
2022/08/21 06:03:20;;;;;;;6.37;3.60;;;19.30;62.20;;;;;;5082024;28;20459;-49
2022/08/21 06:05:48;;;;;;;4.20;3.17;;;19.30;62.10;;;;;;5099857;28;20463;-49
2022/08/21 06:08:16;;;;;;;7.30;4.07;;;19.40;61.90;;;;;;5100246;28;20488;-49
2022/08/21 06:10:44;;;;;;;5.30;3.03;;;19.40;61.70;;;;;;5081051;28;20457;-49
2022/08/21 06:13:11;;;;;;;8.03;3.30;;;19.50;62.00;;;;;;5097065;28;20460;-49
2022/08/21 06:15:38;;;;;;;6.73;3.97;;;19.50;62.00;;;;;;5096035;28;20836;-49
2022/08/21 06:18:05;;;;;;;5.77;3.80;;;19.60;62.00;;;;;;5093077;28;20460;-49
2022/08/21 06:20:32;;;;;;;4.93;3.47;;;19.60;61.60;;;;;;5094103;28;20464;-49
2022/08/21 06:22:59;;;;;;;6.17;3.33;;;19.70;61.40;;;;;;5079377;28;20461;-49
2022/08/21 06:25:26;;;;;;;6.53;3.27;;;19.80;61.20;;;;;;5090706;28;21170;-49
2022/08/21 06:27:59;;;;;;;3.87;3.53;;;19.80;61.20;;;;;;5089127;28;21051;-49
2022/08/21 06:30:26;;;;;;;5.53;4.10;;;19.90;61.10;;;;;;5089931;28;20452;-49
2022/08/21 06:32:53;;;;;;;7.70;4.00;;;20.00;61.00;;;;;;5089115;28;20988;-49
2022/08/21 06:35:19;;;;;;;7.40;3.90;;;20.10;60.90;;;;;;5097685;28;20465;-48
2022/08/21 06:37:46;;;;;;;8.03;3.73;;;20.20;61.20;;;;;;5081984;28;20457;-48
2022/08/21 06:40:13;;;;;;;7.00;3.10;;;20.20;60.80;;;;;;5097262;28;20925;-49
2022/08/21 06:42:40;;;;;;;3.97;3.57;;;20.30;60.60;;;;;;5095975;28;20503;-49
2022/08/21 06:45:10;;;;;;;7.37;3.97;;;20.30;60.90;;;;;;5096094;28;20471;-48
2022/08/21 06:47:37;;;;;;;5.07;4.03;;;20.40;61.20;;;;;;5078004;28;20485;-49
2022/08/21 06:50:04;;;;;;;3.40;3.10;;;20.50;61.00;;;;;;5094386;28;20449;-49
2022/08/21 06:52:31;;;;;;;8.80;3.50;;;20.50;60.70;;;;;;5080562;28;20479;-49
2022/08/21 06:54:58;;;;;;;5.57;3.47;;;20.60;60.60;;;;;;5098576;28;20484;-49
2022/08/21 06:57:25;;;;;;;6.20;4.03;;;20.60;60.30;;;;;;5084688;28;20846;-48
2022/08/21 06:59:52;;;;;;;8.23;4.53;;;20.70;60.00;;;;;;5097102;28;20464;-49
2022/08/21 07:02:18;;;;;;;5.30;4.13;;;20.80;59.80;;;;;;5098236;28;20460;-48
2022/08/21 07:04:45;;;;;;;8.20;4.83;;;20.80;59.70;;;;;;5080420;28;20461;-49
2022/08/21 07:07:12;;;;;;;7.13;4.43;;;20.90;59.90;;;;;;5079249;28;20812;-48
2022/08/21 07:09:39;;;;;;;5.83;4.00;;;21.00;59.70;;;;;;5102284;28;20793;-48
2022/08/21 07:12:06;;;;;;;5.03;4.13;;;21.10;59.90;;;;;;5099276;28;20441;-48
2022/08/21 07:14:33;;;;;;;6.03;4.13;;;21.10;59.70;;;;;;5100430;28;20465;-48
2022/08/21 07:17:00;;;;;;;5.50;3.90;;;21.20;59.30;;;;;;5100365;28;20448;-49
2022/08/21 07:19:27;;;;;;;7.53;4.13;;;21.40;58.90;;;;;;5099541;28;20443;-49
2022/08/21 07:21:59;;;;;;;5.23;4.33;;;21.40;58.90;;;;;;5100090;28;20444;-49
2022/08/21 07:24:26;;;;;;;8.87;4.60;;;21.50;58.80;;;;;;5099686;28;20459;-49
2022/08/21 07:26:52;;;;;;;5.70;3.53;;;21.60;58.60;;;;;;5100188;28;20449;-48
2022/08/21 07:29:19;;;;;;;6.83;4.70;;;21.60;58.60;;;;;;5099360;28;20499;-49
2022/08/21 07:31:46;;;;;;;15.30;4.80;;;21.70;58.40;;;;;;5099757;28;20456;-48
2022/08/21 07:34:13;;;;;;;8.70;4.20;;;21.80;58.00;;;;;;5084588;28;20460;-48
2022/08/21 07:36:40;;;;;;;8.10;4.47;;;21.90;58.00;;;;;;5101002;28;20433;-48
2022/08/21 07:39:07;;;;;;;7.90;4.63;;;21.90;57.90;;;;;;5082841;28;20464;-49
2022/08/21 07:41:35;;;;;;;6.03;4.90;;;22.00;58.00;;;;;;5084165;28;20451;-48
2022/08/21 07:44:02;;;;;;;5.03;4.53;;;22.10;57.90;;;;;;5100685;28;20464;-48
2022/08/21 07:46:29;;;;;;;7.83;4.20;;;22.20;57.70;;;;;;5101515;28;20455;-49
2022/08/21 07:48:56;;;;;;;8.80;4.57;;;22.30;57.80;;;;;;5082342;28;20899;-49
2022/08/21 07:51:27;;;;;;;7.47;5.13;;;22.40;57.50;;;;;;5101538;28;20440;-49
2022/08/21 07:53:55;;;;;;;7.07;4.60;;;22.50;57.10;;;;;;5098687;28;20452;-48
2022/08/21 07:56:22;;;;;;;6.43;4.73;;;22.60;56.90;;;;;;5101339;28;20440;-48
2022/08/21 07:58:49;;;;;;;6.73;4.97;;;22.70;56.90;;;;;;5099106;28;20507;-49
2022/08/21 08:01:16;;;;;;;9.30;5.07;;;22.70;56.80;;;;;;5099657;28;20486;-48
2022/08/21 08:03:44;;;;;;;7.03;4.60;;;22.80;56.70;;;;;;5082482;28;20739;-48
2022/08/21 08:06:12;;;;;;;9.53;5.00;;;22.90;56.50;;;;;;5097419;28;20445;-48
2022/08/21 08:08:40;;;;;;;5.03;4.53;;;23.10;56.30;;;;;;5098894;28;20904;-48
2022/08/21 08:11:15;;;;;;;6.83;5.33;;;23.20;56.10;;;;;;5100559;28;20487;-48
2022/08/21 08:13:44;;;;;;;5.53;4.93;;;23.30;56.10;;;;;;5097498;28;20444;-48
2022/08/21 08:16:11;;;;;;;8.00;5.30;;;23.40;55.70;;;;;;5072752;28;20822;-49
2022/08/21 08:18:38;;;;;;;8.17;5.57;;;23.60;55.50;;;;;;5079787;28;20444;-48
2022/08/21 08:21:05;;;;;;;6.93;5.40;;;23.70;55.40;;;;;;5099908;28;20506;-48
2022/08/21 08:23:32;;;;;;;9.80;5.93;;;23.80;55.30;;;;;;5099815;28;20447;-49
2022/08/21 08:26:02;;;;;;;9.73;6.30;;;23.80;55.40;;;;;;5099628;28;20475;-48
2022/08/21 08:28:31;;;;;;;7.50;5.30;;;23.90;55.20;;;;;;5099244;28;20484;-49
2022/08/21 08:30:59;;;;;;;7.00;5.47;;;23.90;55.20;;;;;;5082765;28;20452;-48
2022/08/21 08:33:26;;;;;;;8.17;5.60;;;23.90;55.20;;;;;;5098451;28;20456;-49
2022/08/21 08:35:53;;;;;;;7.90;5.30;;;24.00;55.10;;;;;;5080117;28;20797;-49
2022/08/21 08:38:22;;;;;;;6.13;5.50;;;24.10;55.00;;;;;;5087345;28;20468;-48
2022/08/21 08:41:02;;;;;;;7.90;6.10;;;24.30;55.10;;;;;;5080452;28;20439;-48
2022/08/21 08:43:31;;;;;;;9.80;5.80;;;24.40;54.90;;;;;;5095788;28;20452;-48
2022/08/21 08:46:02;;;;;;;5.83;4.97;;;24.60;54.20;;;;;;5097793;28;20464;-48
2022/08/21 08:48:46;;;;;;;5.30;4.80;;;24.70;53.70;;;;;;5099305;28;20496;-48
2022/08/21 08:51:27;;;;;;;8.70;4.80;;;24.80;53.50;;;;;;5080895;28;20449;-48
2022/08/21 08:54:02;;;;;;;7.97;5.50;;;24.90;53.30;;;;;;5099500;28;20431;-49
2022/08/21 08:56:32;;;;;;;10.30;5.17;;;25.00;52.70;;;;;;5096965;28;20823;-48
2022/08/21 08:59:13;;;;;;;6.50;4.37;;;25.20;52.10;;;;;;5099734;28;20448;-49
2022/08/21 09:01:41;;;;;;;6.67;4.20;;;25.30;51.30;;;;;;5081131;28;20467;-48
2022/08/21 09:04:12;;;;;;;7.17;3.90;;;25.30;51.00;;;;;;5100110;28;20467;-49
2022/08/21 09:07:05;;;;;;;6.63;3.40;;;25.50;50.50;;;;;;5076257;28;20460;-48
2022/08/21 09:09:43;;;;;;;5.00;3.23;;;25.60;49.60;;;;;;5096964;28;20490;-49
2022/08/21 09:12:34;;;;;;;4.77;3.70;;;25.70;49.20;;;;;;5095983;28;20444;-48
2022/08/21 09:15:19;;;;;;;5.60;4.60;;;25.80;48.80;;;;;;5098069;28;20463;-49
2022/08/21 09:17:49;;;;;;;7.37;4.70;;;25.80;48.70;;;;;;5096977;28;20456;-49
2022/08/21 09:20:22;;;;;;;8.33;4.60;;;25.70;48.80;;;;;;5095221;28;20455;-49
2022/08/21 09:23:28;;;;;;;6.63;4.60;;;25.70;49.10;;;;;;5099387;28;20444;-48
2022/08/21 09:26:00;;;;;;;5.23;4.73;;;25.70;49.10;;;;;;5085196;28;20456;-49
2022/08/21 09:28:32;;;;;;;8.23;4.50;;;25.70;49.20;;;;;;5081209;28;20832;-48
2022/08/21 09:31:02;;;;;;;10.80;4.33;;;25.70;49.30;;;;;;5097324;28;20458;-49
2022/08/21 09:33:29;;;;;;;8.00;4.83;;;25.70;49.30;;;;;;5097153;28;20451;-49
2022/08/21 09:35:59;;;;;;;4.90;4.40;;;25.70;49.20;;;;;;5099241;28;20828;-49
2022/08/21 09:38:31;;;;;;;6.23;3.90;;;25.70;49.30;;;;;;5081515;28;20451;-49
2022/08/21 09:41:08;;;;;;;7.00;4.40;;;25.70;49.30;;;;;;5098072;28;20494;-49
2022/08/21 09:43:36;;;;;;;5.73;3.83;;;25.80;49.10;;;;;;5083149;28;20474;-49
2022/08/21 09:46:21;;;;;;;6.60;3.83;;;25.80;48.60;;;;;;5081128;28;20459;-48
2022/08/21 09:48:50;;;;;;;7.17;4.27;;;25.90;48.50;;;;;;5098220;28;20762;-48
2022/08/21 09:51:20;;;;;;;8.10;3.97;;;26.00;48.30;;;;;;5098237;28;20936;-48
2022/08/21 09:54:14;;;;;;;7.30;4.70;;;26.10;48.20;;;;;;5079534;28;20439;-48
2022/08/21 09:59:46;;;;;;;6.47;3.40;;;26.40;47.90;;;;;;5096270;28;20463;-49
2022/08/21 10:02:22;;;;;;;5.20;3.60;;;26.60;47.50;;;;;;5096205;28;20455;-48
2022/08/21 10:05:01;;;;;;;4.47;3.37;;;26.80;46.80;;;;;;5096696;28;20448;-48
2022/08/21 10:07:30;;;;;;;4.20;2.87;;;27.00;45.60;;;;;;5080299;28;20479;-49
2022/08/21 10:10:03;;;;;;;5.93;3.70;;;27.20;44.80;;;;;;5079791;28;20476;-48
2022/08/21 10:12:56;;;;;;;5.80;2.80;;;27.30;44.10;;;;;;5078049;28;20444;-48
2022/08/21 10:15:32;;;;;;;5.87;3.40;;;27.30;43.60;;;;;;5096407;28;20664;-48
2022/08/21 10:18:17;;;;;;;6.00;2.87;;;27.40;43.00;;;;;;5069167;28;20460;-48
2022/08/21 10:20:52;;;;;;;3.30;2.43;;;27.50;42.80;;;;;;5070654;28;20831;-48
2022/08/21 10:23:43;;;;;;;4.03;2.77;;;27.60;42.60;;;;;;5096132;28;20201;-48
2022/08/21 10:26:43;;;;;;;6.33;3.53;;;27.60;42.60;;;;;;5094497;28;20471;-49
2022/08/21 10:29:21;;;;;;;4.20;3.07;;;27.60;42.70;;;;;;5096973;28;20225;-48
2022/08/21 10:31:50;;;;;;;4.00;3.07;;;27.50;42.70;;;;;;5093011;28;20453;-48
2022/08/21 10:34:39;;;;;;;4.30;3.07;;;27.50;42.80;;;;;;5100405;28;20217;-49
2022/08/21 10:37:22;;;;;;;4.60;2.70;;;27.40;42.50;;;;;;5078295;28;20202;-49
2022/08/21 10:40:17;;;;;;;6.40;3.53;;;27.40;42.60;;;;;;5077515;28;20452;-48
2022/08/21 10:43:02;;;;;;;3.50;2.70;;;27.20;42.90;;;;;;5098243;28;20475;-48
2022/08/21 10:45:48;;;;;;;4.97;2.73;;;27.10;43.30;;;;;;5101565;28;20214;-48
2022/08/21 10:48:25;;;;;;;4.47;2.70;;;27.00;43.00;;;;;;5100016;28;20484;-49
2022/08/21 10:51:03;;;;;;;4.33;2.50;;;27.10;43.20;;;;;;5085100;28;20447;-49
2022/08/21 10:53:59;;;;;;;2.93;2.60;;;27.20;42.40;;;;;;5096172;28;20972;-49
2022/08/21 10:56:30;;;;;;;4.60;2.50;;;27.30;42.40;;;;;;5099476;28;20476;-49
2022/08/21 10:59:22;;;;;;;6.83;2.83;;;27.30;42.80;;;;;;5084808;28;20509;-48
2022/08/21 11:01:57;;;;;;;6.80;3.00;;;27.20;43.20;;;;;;5082967;28;20488;-49
2022/08/21 11:04:36;;;;;;;3.60;3.30;;;27.10;43.20;;;;;;5099182;28;20455;-49
2022/08/21 11:07:20;;;;;;;4.77;3.23;;;27.00;43.30;;;;;;5102302;28;20448;-49
2022/08/21 11:09:49;;;;;;;7.83;3.17;;;26.90;43.60;;;;;;5082131;28;20483;-49
2022/08/21 11:12:35;;;;;;;4.40;3.00;;;26.80;43.60;;;;;;5098102;28;20572;-49
2022/08/21 11:15:21;;;;;;;4.17;2.80;;;26.70;43.80;;;;;;5100720;28;20432;-49
2022/08/21 11:18:26;;;;;;;8.07;3.33;;;26.60;43.90;;;;;;5084600;28;20499;-49
2022/08/21 11:21:18;;;;;;;5.27;3.10;;;26.60;43.40;;;;;;5101228;28;20446;-48
2022/08/21 11:24:12;;;;;;;7.53;2.93;;;26.50;43.60;;;;;;5069966;28;20459;-49
2022/08/21 11:26:51;;;;;;;5.00;3.03;;;26.50;43.80;;;;;;5105031;28;20471;-49
2022/08/21 11:29:23;;;;;;;4.27;2.83;;;26.50;44.00;;;;;;5101811;28;20489;-49
2022/08/21 11:31:59;;;;;;;3.50;2.40;;;26.40;44.00;;;;;;5080471;28;20460;-49
2022/08/21 11:35:05;;;;;;;2.57;2.17;;;26.40;44.10;;;;;;5099789;28;20456;-49
2022/08/21 11:37:58;;;;;;;5.40;2.77;;;26.30;44.10;;;;;;5083719;28;20448;-49
2022/08/21 11:41:00;;;;;;;4.87;2.50;;;26.30;44.30;;;;;;5099394;28;20456;-49
2022/08/21 11:43:45;;;;;;;4.23;2.87;;;26.20;44.60;;;;;;5039672;28;20460;-49
2022/08/21 11:46:27;;;;;;;3.27;2.10;;;26.20;44.40;;;;;;5080002;28;20458;-49
2022/08/21 11:49:04;;;;;;;3.70;2.50;;;26.20;44.00;;;;;;5077617;28;20475;-49
2022/08/21 11:51:59;;;;;;;4.30;3.10;;;26.20;43.90;;;;;;5083135;28;20450;-49
2022/08/21 11:54:45;;;;;;;2.40;2.17;;;26.20;44.20;;;;;;5082668;28;20464;-48
2022/08/21 11:57:30;;;;;;;6.87;2.43;;;26.20;44.20;;;;;;5099542;28;20472;-49
2022/08/21 12:00:07;;;;;;;4.03;2.80;;;26.20;43.40;;;;;;5099587;28;20440;-49
2022/08/21 12:02:41;;;;;;;4.43;3.10;;;26.20;43.70;;;;;;5096311;28;20455;-49
2022/08/21 12:05:11;;;;;;;3.87;2.43;;;26.10;43.90;;;;;;5100021;28;20458;-49
2022/08/21 12:07:39;;;;;;;7.33;3.70;;;26.10;44.10;;;;;;5100642;28;21039;-49
2022/08/21 12:10:11;;;;;;;4.90;2.40;;;26.10;43.90;;;;;;5098960;28;20493;-49
2022/08/21 12:12:40;;;;;;;3.10;2.80;;;26.10;44.10;;;;;;5099378;28;21075;-49
2022/08/21 12:15:25;;;;;;;3.47;2.67;;;26.10;43.80;;;;;;5101042;28;20854;-49
2022/08/21 12:18:22;;;;;;;3.07;2.20;;;26.10;44.40;;;;;;5092626;28;20459;-48
2022/08/21 12:21:16;;;;;;;4.87;2.90;;;26.20;44.30;;;;;;5097611;28;20582;-49
2022/08/21 12:24:01;;;;;;;2.67;2.47;;;26.20;44.20;;;;;;5100126;28;20460;-49
2022/08/21 12:26:35;;;;;;;6.17;2.57;;;26.20;44.30;;;;;;5084907;28;20470;-48
2022/08/21 12:29:21;;;;;;;3.80;3.10;;;26.20;44.30;;;;;;5084204;28;20491;-49
2022/08/21 12:32:11;;;;;;;3.93;3.27;;;26.20;44.10;;;;;;5098918;28;20455;-49
2022/08/21 12:34:44;;;;;;;3.87;2.70;;;26.30;44.20;;;;;;5044774;28;20451;-49
2022/08/21 12:37:24;;;;;;;3.13;2.83;;;26.30;44.10;;;;;;5099949;28;20455;-48
2022/08/21 12:39:52;;;;;;;4.13;2.70;;;26.30;44.10;;;;;;5098953;28;20463;-49
2022/08/21 12:42:31;;;;;;;4.67;3.10;;;26.30;44.10;;;;;;5099392;28;20690;-49
2022/08/21 12:45:13;;;;;;;7.43;2.60;;;26.30;44.10;;;;;;5081719;28;20455;-48
2022/08/21 12:48:04;;;;;;;2.93;2.40;;;26.30;44.00;;;;;;5097509;28;20432;-49
2022/08/21 12:50:46;;;;;;;2.67;2.43;;;26.30;43.70;;;;;;5098560;28;20495;-49
2022/08/21 12:54:00;;;;;;;3.20;2.37;;;26.40;43.70;;;;;;5099270;28;20450;-49
2022/08/21 12:56:33;;;;;;;4.40;2.83;;;26.40;44.00;;;;;;5049541;28;20454;-49
2022/08/21 12:59:04;;;;;;;3.73;2.83;;;26.40;43.60;;;;;;5071856;28;20475;-49
2022/08/21 13:01:35;;;;;;;5.17;2.40;;;26.40;43.60;;;;;;5096275;28;20454;-48
2022/08/21 13:04:12;;;;;;;4.30;2.70;;;26.40;43.50;;;;;;5098434;28;20907;-49
2022/08/21 13:06:46;;;;;;;5.73;2.90;;;26.40;43.50;;;;;;5096908;28;20478;-48
2022/08/21 13:09:16;;;;;;;5.40;2.87;;;26.40;43.70;;;;;;5098626;28;20484;-49
2022/08/21 13:11:45;;;;;;;5.13;3.07;;;26.40;43.50;;;;;;5080571;28;20455;-48
2022/08/21 13:14:20;;;;;;;5.30;2.60;;;26.40;43.50;;;;;;5100295;28;20440;-48
2022/08/21 13:16:52;;;;;;;6.50;2.93;;;26.50;43.00;;;;;;5076077;28;20459;-49